MUC | München Airways

 METAR UND TAF INFORMATION

METAR FOR LEJR
ADDS - METARS form results

(0922 UTC 21 May 2019)
Data provider http://aviationweather.gov/metar/data/
 
METAR text: LEJR 210900Z VRB04KT CAVOK 22/11 Q1015
Conditions at: LEJR (JEREZ (CIV/MIL) , ES) observed 0900 UTC 21 May 2019
Temperature: 22.0°C (72°F)
Dewpoint: 11.0°C (52°F) [RH = 50%]
Pressure (altimeter): 29.97 inches Hg (1015.0 mb)
Winds: variable direction winds at 5 MPH (4 knots; 2.1 m/s)
Visibility: 6 or more miles (10+ km)
Ceiling: ceiling and visibility are OK
Clouds: unknown
Weather: no significant weather observed at this time

METAR text: LEJR 210830Z VRB02KT CAVOK 20/11 Q1015
Conditions at: LEJR (JEREZ (CIV/MIL) , ES) observed 0830 UTC 21 May 2019
Temperature: 20.0°C (68°F)
Dewpoint: 11.0°C (52°F) [RH = 56%]
Pressure (altimeter): 29.97 inches Hg (1015.0 mb)
Winds: variable direction winds at 2 MPH (2 knots; 1.0 m/s)
Visibility: 6 or more miles (10+ km)
Ceiling: ceiling and visibility are OK
Clouds: unknown
Weather: no significant weather observed at this time

Forecast for: LEJR (JEREZ (CIV/MIL) , ES)
Text: TAF LEJR 210500Z 2106/2206 VRB02KT CAVOK TX28/2114Z TN10/2106Z
Forecast period: 0600 to 0900 UTC 21 May 2019
Forecast type: FROM: standard forecast or significant change
Winds: variable direction winds at 2 MPH (2 knots; 1.0 m/s)
Visibility: 6 or more miles 10+ km)
Ceiling: unknown
Clouds: missing
Weather: no significant weather forecast for this period
Text: BECMG 2109/2112 27010KT
Forecast period: 0900 to 1900 UTC 21 May 2019
Forecast type: BECOMING: Conditions expected to become as follows by 1200 UTC 21 May 2019
Winds: from the W (270 degrees) at 12 MPH (10 knots; 5.1 m/s)
Visibility: 6 or more miles 10+ km)
Ceiling: unknown
Clouds: missing
Weather: no significant weather forecast for this period
Text: BECMG 2119/2122 17004KT
Forecast period: 1900 UTC 21 May 2019 to 0600 UTC 22 May 2019
Forecast type: BECOMING: Conditions expected to become as follows by 2200 UTC 21 May 2019
Winds: from the S (170 degrees) at 5 MPH (4 knots; 2.1 m/s)
Visibility: 6 or more miles 10+ km)
Ceiling: unknown
Clouds: missing
Weather: no significant weather forecast for this period

 FLUGHAFENKARTE

 RUNWAY INFORMATION
Runway 02 Runway length 7546 ft Runway width 148 ft
Runway elevation 68 ft Runway displaced threshold 0 ft Runway heading 21
Runway 20 Runway length 7546 ft Runway width 148 ft
Runway elevation 93 ft Runway displaced threshold 0 ft Runway heading 201

 AIRPORT FREQUENCIES
Type APP Name APP Frequency 128.5 MHZ
Type GND Name GND Frequency 121.6 MHZ
Type TWR Name TWR Frequency 118.55 MHZ

 AIRPORT NEAR NAVIGATION AIDS
Type NDB Name Jerez Frequency 433 KHZ
Type VOR-DME Name Jerez Frequency 113000 KHZ